Terminal Aerodrome Forecast
Issued by NWS Boston, MA

Home | Current Version | Previous Version | Text Only | Print | Product List | Glossary On
Versions: 1 2 3 4 5 6 7 8 9 10 11 12 13 14 15 16 17 18 19 20 21 22 23 24 25 26 27 28 29 30 31 32 33 34 35 36 37 38 39 40 41 42 43 44 45 46 47 48 49 50
937
FTUS41 KBOX 151403 AAA
TAFBOS
TAF AMD
KBOS 151403Z 1514/1618 27008KT P6SM FEW250
     FM151630 25010KT P6SM FEW050
     FM152000 24009KT P6SM FEW050
     FM160000 27007KT P6SM FEW050
     FM160500 30003KT P6SM SCT100
     FM161200 35003KT P6SM VCSH BKN060
     FM161700 04004KT P6SM VCSH BKN030=

USA.gov is the U.S. government's official web portal to all federal, state and local government web resources and services.